OIAG  Aghajari Airport

Add Bookmark

Iran

Status
Operational
Latitude Longitude
30° 44' 39" N 49° 40' 37" E
30.744400 49.677200
Local (DST + 5) UTC (GMT + 4)
Sep 20, 2014 08:28 Sep 20, 2014 15:58
Sunrise-Sunset Local UTC
Begin Civil Twilight 06:33 02:03
Sunrise 06:57 02:27
Sunset 07:12 14:42
End Civil Twilight 07:36 15:06

Current Weather

METAR Observed VFR
OIAG 201400Z 25008KT CAVOK 41/M09 Q1003 Sat, Sep 20, 2014 @ 14:00 UTC
(1 Hour, 58 Minutes ago)
Visual Flight Rules
Wind Visibility Clouds Conditions
250° at 8 knots (15 kph) 10 km or more
  • Clear skies
  • No significant weather
Temperatures Readings Precipitation
Current Temp 41°C (106°F)
Dewpoint -9°C (16°F)
Humidity 4%
Altimeter 29.62"Hg
Sea Level Pressure 1003mb
Field Elevation 95.14'
None Recorded

Additional weather within a 92.6km radius of OIAG

Map ICAO Location
OIAM 54.4km W (248°)

24 Hour Weather History

Loading
-

24 Hour Weather Graphs

Loading
-

CheckWX.com is intended as a tool to help pilots better visualize weather data. It is not intended as a substitute for an official weather briefing obtained from a Flight Service Station. CheckWX.com does not meet the FAA requirements for an official pre-flight weather briefing. Therefore, it's important that pilots still call and obtain an official FSS pre-flight weather briefing.